Time;durP1;ratioP1;P1;durP2;ratioP2;P2;SDS_P1;SDS_P2;PMS_P1;PMS_P2;Temp;Humidity;BMP_temperature;BMP_pressure;BME280_temperature;BME280_humidity;BME280_pressure;Samples;Min_cycle;Max_cycle;Signal;HPM_P1;HPM_P2
2022/10/30 00:01:20;;;;;;;;;;;;;;;10.75;100.00;98514.00;7384161;19;20269;-49
2022/10/30 00:03:53;;;;;;;;;;;;;;;10.62;100.00;98521.72;7389525;19;19911;-49
2022/10/30 00:06:26;;;;;;;;;;;;;;;10.59;100.00;98535.03;7389551;19;20249;-51
2022/10/30 00:08:59;;;;;;;;;;;;;;;10.89;100.00;98521.97;7387052;19;19934;-50
2022/10/30 00:11:34;;;;;;;;;;;;;;;10.36;100.00;98532.81;7391992;19;19974;-50
2022/10/30 00:14:07;;;;;;;;;;;;;;;10.60;100.00;98528.00;7387213;19;20607;-58
2022/10/30 00:16:40;;;;;;;;;;;;;;;10.63;100.00;98519.94;7389401;19;20268;-52
2022/10/30 00:19:13;;;;;;;;;;;;;;;10.70;100.00;98513.41;7390441;19;20022;-52
2022/10/30 00:21:48;;;;;;;;;;;;;;;10.49;100.00;98518.09;7386211;19;19915;-49
2022/10/30 00:24:21;;;;;;;;;;;;;;;10.35;100.00;98501.34;7387783;19;19929;-51
2022/10/30 00:26:56;;;;;;;;;;;;;;;10.76;100.00;98495.50;7389291;19;20385;-58
2022/10/30 00:29:29;;;;;;;;;;;;;;;10.59;100.00;98494.75;7389591;19;19932;-56
2022/10/30 00:32:02;;;;;;;;;;;;;;;10.58;100.00;98498.31;7390713;19;20257;-51
2022/10/30 00:34:35;;;;;;;;;;;;;;;10.51;100.00;98508.31;7380382;19;19915;-48
2022/10/30 00:37:08;;;;;;;;;;;;;;;10.29;100.00;98506.97;7389766;19;19923;-50
2022/10/30 00:39:40;;;;;;;;;;;;;;;10.52;100.00;98493.41;7389328;19;19915;-57
2022/10/30 00:42:19;;;;;;;;;;;;;;;10.56;100.00;98484.41;7389725;19;20795;-52
2022/10/30 00:44:55;;;;;;;;;;;;;;;10.40;100.00;98494.91;7387463;19;19986;-49
2022/10/30 00:47:31;;;;;;;;;;;;;;;10.34;100.00;98494.41;7383134;19;19915;-49
2022/10/30 00:50:06;;;;;;;;;;;;;;;10.49;100.00;98489.16;7386615;19;19911;-52
2022/10/30 00:52:40;;;;;;;;;;;;;;;10.64;100.00;98498.84;7385402;19;19942;-49
2022/10/30 00:55:16;;;;;;;;;;;;;;;10.41;100.00;98487.88;7388581;19;19915;-47
2022/10/30 00:57:52;;;;;;;;;;;;;;;10.54;100.00;98492.38;7388637;19;19915;-55
2022/10/30 01:00:29;;;;;;;;;;;;;;;10.45;100.00;98492.03;7389028;19;19918;-50
2022/10/30 01:03:03;;;;;;;;;;;;;;;10.45;100.00;98497.31;7388707;19;19921;-50
2022/10/30 01:05:36;;;;;;;;;;;;;;;10.69;100.00;98503.81;7381369;19;19986;-48
2022/10/30 01:08:10;;;;;;;;;;;;;;;10.30;100.00;98506.03;7388531;19;19914;-53
2022/10/30 01:10:43;;;;;;;;;;;;;;;10.25;100.00;98505.44;7385972;19;19926;-57
2022/10/30 01:13:18;;;;;;;;;;;;;;;10.48;100.00;98497.97;7390561;19;19930;-52
2022/10/30 01:15:57;;;;;;;;;;;;;;;10.63;100.00;98502.38;7386047;19;19919;-51
2022/10/30 01:18:39;;;;;;;;;;;;;;;10.79;100.00;98500.59;7385283;19;19939;-52
2022/10/30 01:21:20;;;;;;;;;;;;;;;11.03;100.00;98472.06;7387206;19;19918;-51
2022/10/30 01:23:59;;;;;;;;;;;;;;;10.69;100.00;98491.53;7387591;19;19928;-48
2022/10/30 01:26:39;;;;;;;;;;;;;;;10.54;100.00;98486.25;7387584;19;19987;-49
2022/10/30 01:29:27;;;;;;;;;;;;;;;10.64;100.00;98479.56;7387198;19;20171;-55
2022/10/30 01:32:09;;;;;;;;;;;;;;;10.39;100.00;98484.47;7386652;19;19918;-51
2022/10/30 01:34:48;;;;;;;;;;;;;;;10.50;100.00;98479.47;7387806;19;19915;-50
2022/10/30 01:37:25;;;;;;;;;;;;;;;10.42;100.00;98476.44;7387313;19;19911;-51
2022/10/30 01:39:58;;;;;;;;;;;;;;;10.25;100.00;98481.78;7384515;19;19919;-49
2022/10/30 01:42:45;;;;;;;;;;;;;;;10.59;100.00;98489.50;7385933;19;19922;-49
2022/10/30 01:45:25;;;;;;;;;;;;;;;10.47;100.00;98487.53;7386746;19;19926;-52
2022/10/30 01:48:14;;;;;;;;;;;;;;;10.21;100.00;98485.47;7387605;19;19922;-56
2022/10/30 01:51:00;;;;;;;;;;;;;;;10.57;100.00;98486.94;7386690;19;19954;-53
2022/10/30 01:53:40;;;;;;;;;;;;;;;10.02;100.00;98485.63;7381313;19;19931;-56
2022/10/30 01:56:18;;;;;;;;;;;;;;;10.63;100.00;98477.88;7384292;19;19915;-46
2022/10/30 01:58:53;;;;;;;;;;;;;;;10.58;100.00;98486.00;7382155;19;19925;-57
2022/10/30 02:01:30;;;;;;;;;;;;;;;10.10;100.00;98485.22;7385537;19;19979;-49
2022/10/30 02:04:03;;;;;;;;;;;;;;;10.39;100.00;98476.59;7386055;19;19907;-48
2022/10/30 02:06:39;;;;;;;;;;;;;;;10.25;100.00;98481.78;7384039;19;19918;-50
2022/10/30 02:09:13;;;;;;;;;;;;;;;10.17;100.00;98487.44;7387351;19;19922;-49
2022/10/30 02:11:53;;;;;;;;;;;;;;;10.17;100.00;98491.84;7380132;19;19919;-51
2022/10/30 02:14:32;;;;;;;;;;;;;;;10.23;100.00;98478.38;7385433;19;19914;-49
2022/10/30 02:17:10;;;;;;;;;;;;;;;10.18;100.00;98486.50;7379713;19;19919;-57
2022/10/30 02:19:43;;;;;;;;;;;;;;;9.98;100.00;98483.25;7385596;19;19915;-49
2022/10/30 02:22:19;;;;;;;;;;;;;;;10.11;100.00;98476.41;7386321;19;19942;-50
2022/10/30 02:24:52;;;;;;;;;;;;;;;10.04;100.00;98461.91;7386367;19;19915;-52
2022/10/30 02:27:30;;;;;;;;;;;;;;;10.22;100.00;98463.53;7387164;19;19983;-50
2022/10/30 02:30:03;;;;;;;;;;;;;;;9.97;100.00;98466.66;7380070;19;19982;-51
2022/10/30 02:32:36;;;;;;;;;;;;;;;10.03;100.00;98468.09;7386578;19;19911;-51
2022/10/30 02:35:12;;;;;;;;;;;;;;;9.85;100.00;98479.59;7382079;19;19915;-49
2022/10/30 02:37:48;;;;;;;;;;;;;;;9.62;100.00;98479.94;7385137;19;20327;-51
2022/10/30 02:40:21;;;;;;;;;;;;;;;9.77;100.00;98487.00;7383749;19;20276;-50
2022/10/30 02:42:57;;;;;;;;;;;;;;;9.88;100.00;98488.16;7379681;19;19918;-57
2022/10/30 02:45:30;;;;;;;;;;;;;;;10.18;100.00;98475.16;7384599;19;19915;-57
2022/10/30 02:48:04;;;;;;;;;;;;;;;10.28;100.00;98478.97;7382582;19;21476;-53
2022/10/30 02:50:38;;;;;;;;;;;;;;;10.03;100.00;98473.34;7386640;19;20208;-52
2022/10/30 02:53:13;;;;;;;;;;;;;;;10.10;100.00;98478.19;7385798;19;19949;-49
2022/10/30 02:55:46;;;;;;;;;;;;;;;10.22;100.00;98476.69;7379953;19;19915;-47
2022/10/30 02:58:19;;;;;;;;;;;;;;;10.00;100.00;98476.16;7393192;19;20615;-51
2022/10/30 03:00:51;;;;;;;;;;;;;;;10.03;100.00;98476.00;7387838;19;20375;-57
2022/10/30 03:03:25;;;;;;;;;;;;;;;10.13;100.00;98472.78;7390768;19;20317;-50
2022/10/30 03:06:00;;;;;;;;;;;;;;;10.21;100.00;98474.97;7390489;19;19910;-49
2022/10/30 03:08:36;;;;;;;;;;;;;;;9.67;100.00;98476.13;7387463;19;19983;-50
2022/10/30 03:11:13;;;;;;;;;;;;;;;9.94;100.00;98472.06;7392408;19;19915;-48
2022/10/30 03:13:49;;;;;;;;;;;;;;;9.81;100.00;98484.13;7387592;19;20250;-50
2022/10/30 03:16:23;;;;;;;;;;;;;;;9.85;100.00;98476.97;7392361;19;19915;-49
2022/10/30 03:18:57;;;;;;;;;;;;;;;9.80;100.00;98486.84;7392914;19;19914;-51
2022/10/30 03:21:30;;;;;;;;;;;;;;;10.11;100.00;98479.88;7392559;19;19919;-51
2022/10/30 03:24:06;;;;;;;;;;;;;;;10.03;100.00;98484.69;7392252;19;19926;-50
2022/10/30 03:26:39;;;;;;;;;;;;;;;9.67;100.00;98486.63;7385674;19;19919;-48
2022/10/30 03:29:14;;;;;;;;;;;;;;;9.90;100.00;98485.44;7393182;19;19943;-51
2022/10/30 03:31:47;;;;;;;;;;;;;;;9.80;100.00;98494.72;7391584;19;20415;-51
2022/10/30 03:34:24;;;;;;;;;;;;;;;9.97;100.00;98481.56;7389546;19;19941;-49
2022/10/30 03:36:57;;;;;;;;;;;;;;;10.02;100.00;98475.13;7390652;19;20338;-51
2022/10/30 03:39:33;;;;;;;;;;;;;;;9.76;100.00;98480.06;7385978;19;19991;-47
2022/10/30 03:42:08;;;;;;;;;;;;;;;9.80;100.00;98473.72;7391094;19;19915;-50
2022/10/30 03:44:41;;;;;;;;;;;;;;;10.06;100.00;98468.78;7386712;19;20228;-55
2022/10/30 03:47:17;;;;;;;;;;;;;;;9.77;100.00;98479.13;7389634;19;19931;-51
2022/10/30 03:49:51;;;;;;;;;;;;;;;9.58;100.00;98481.84;7393400;19;19919;-52
2022/10/30 03:52:26;;;;;;;;;;;;;;;9.53;100.00;98477.75;7388644;19;19922;-51
2022/10/30 03:55:02;;;;;;;;;;;;;;;9.72;100.00;98475.91;7390492;19;20276;-51
2022/10/30 03:57:42;;;;;;;;;;;;;;;9.73;100.00;98474.97;7384192;19;19929;-50
2022/10/30 04:00:26;;;;;;;;;;;;;;;9.43;100.00;98464.25;7389724;19;19927;-51
2022/10/30 04:03:03;;;;;;;;;;;;;;;9.42;100.00;98478.31;7384064;19;19918;-49
2022/10/30 04:05:37;;;;;;;;;;;;;;;9.48;100.00;98467.50;7389580;19;19915;-51
2022/10/30 04:08:12;;;;;;;;;;;;;;;9.34;100.00;98469.13;7390816;19;19986;-51
2022/10/30 04:10:51;;;;;;;;;;;;;;;9.44;100.00;98462.50;7390302;19;19918;-49
2022/10/30 04:13:24;;;;;;;;;;;;;;;9.43;100.00;98463.41;7391259;19;19918;-53
2022/10/30 04:15:59;;;;;;;;;;;;;;;9.29;100.00;98476.38;7387092;19;19946;-55
2022/10/30 04:18:32;;;;;;;;;;;;;;;9.17;100.00;98471.75;7390104;19;19923;-51
2022/10/30 04:21:05;;;;;;;;;;;;;;;9.20;100.00;98472.47;7388465;19;19986;-51
2022/10/30 04:23:41;;;;;;;;;;;;;;;9.09;100.00;98473.91;7386979;19;19918;-47
2022/10/30 04:26:17;;;;;;;;;;;;;;;9.22;100.00;98482.88;7389762;19;19907;-47
2022/10/30 04:28:53;;;;;;;;;;;;;;;9.34;100.00;98475.22;7389574;19;19950;-46
2022/10/30 04:31:26;;;;;;;;;;;;;;;9.47;100.00;98464.94;7391648;19;19926;-49
2022/10/30 04:34:01;;;;;;;;;;;;;;;9.62;100.00;98464.16;7385007;19;19937;-50
2022/10/30 04:36:34;;;;;;;;;;;;;;;9.44;100.00;98465.13;7388876;19;19922;-48
2022/10/30 04:39:07;;;;;;;;;;;;;;;9.10;100.00;98470.34;7389457;19;19922;-48
2022/10/30 04:41:43;;;;;;;;;;;;;;;9.11;100.00;98475.53;7387038;19;19922;-49
2022/10/30 04:44:23;;;;;;;;;;;;;;;9.10;100.00;98465.97;7389736;19;19915;-52
2022/10/30 04:47:00;;;;;;;;;;;;;;;9.00;100.00;98469.16;7387714;19;19919;-51
2022/10/30 04:49:32;;;;;;;;;;;;;;;9.27;100.00;98465.13;7391410;19;20328;-49
2022/10/30 04:52:05;;;;;;;;;;;;;;;8.91;100.00;98470.44;7384103;19;20398;-49
2022/10/30 04:54:38;;;;;;;;;;;;;;;8.90;100.00;98471.38;7387294;19;19939;-51
2022/10/30 04:57:14;;;;;;;;;;;;;;;8.75;100.00;98479.13;7387467;19;19915;-50
2022/10/30 04:59:48;;;;;;;;;;;;;;;8.98;100.00;98479.72;7386357;19;19931;-49
2022/10/30 05:02:21;;;;;;;;;;;;;;;8.83;100.00;98482.22;7389848;19;19911;-51
2022/10/30 05:04:54;;;;;;;;;;;;;;;8.88;100.00;98480.22;7383550;19;20368;-52
2022/10/30 05:07:27;;;;;;;;;;;;;;;8.59;100.00;98483.41;7387419;19;19914;-46
2022/10/30 05:10:05;;;;;;;;;;;;;;;8.57;100.00;98485.25;7386927;19;19915;-47
2022/10/30 05:12:40;;;;;;;;;;;;;;;8.78;100.00;98489.47;7385419;19;19922;-48
2022/10/30 05:15:13;;;;;;;;;;;;;;;8.88;100.00;98488.09;7388538;19;19915;-47
2022/10/30 05:17:48;;;;;;;;;;;;;;;8.50;100.00;98484.72;7381422;19;19915;-49
2022/10/30 05:20:24;;;;;;;;;;;;;;;8.82;100.00;98485.78;7387705;19;19922;-49
2022/10/30 05:23:00;;;;;;;;;;;;;;;8.83;100.00;98505.84;7387648;19;19919;-49
2022/10/30 05:25:33;;;;;;;;;;;;;;;8.83;100.00;98495.34;7388484;19;20548;-50
2022/10/30 05:28:11;;;;;;;;;;;;;;;8.89;100.00;98502.91;7387169;19;20022;-46
2022/10/30 05:30:51;;;;;;;;;;;;;;;8.99;100.00;98505.00;7386395;19;19935;-49
2022/10/30 05:33:44;;;;;;;;;;;;;;;8.67;100.00;98504.88;7384852;19;19918;-52
2022/10/30 05:36:17;;;;;;;;;;;;;;;9.24;100.00;98500.25;7385101;19;19922;-49
2022/10/30 05:38:50;;;;;;;;;;;;;;;8.78;100.00;98494.72;7387213;19;19922;-46
2022/10/30 05:41:38;;;;;;;;;;;;;;;8.89;100.00;98502.91;7387401;19;19922;-49
2022/10/30 05:44:13;;;;;;;;;;;;;;;9.07;100.00;98494.13;7386354;19;19936;-50
2022/10/30 05:46:49;;;;;;;;;;;;;;;9.02;100.00;98498.75;7383061;19;19922;-45
2022/10/30 05:49:31;;;;;;;;;;;;;;;8.95;100.00;98484.25;7387446;19;19919;-49
2022/10/30 05:52:06;;;;;;;;;;;;;;;8.92;100.00;98492.25;7380158;19;19911;-46
2022/10/30 05:54:38;;;;;;;;;;;;;;;9.05;100.00;98494.22;7386316;19;19982;-52
2022/10/30 05:57:26;;;;;;;;;;;;;;;8.91;100.00;98495.81;7381434;19;19933;-49
2022/10/30 06:00:02;;;;;;;;;;;;;;;9.00;100.00;98490.97;7385637;19;19918;-50
2022/10/30 06:02:38;;;;;;;;;;;;;;;8.99;100.00;98488.41;7384692;19;19924;-53
2022/10/30 06:05:14;;;;;;;;;;;;;;;8.95;100.00;98497.34;7384475;19;19911;-52
2022/10/30 06:07:49;;;;;;;;;;;;;;;8.82;100.00;98494.47;7386367;19;19918;-49
2022/10/30 06:10:25;;;;;;;;;;;;;;;8.83;100.00;98503.22;7387314;19;20278;-47
2022/10/30 06:13:12;;;;;;;;;;;;;;;8.93;100.00;98504.47;7387355;19;19907;-48
2022/10/30 06:15:54;;;;;;;;;;;;;;;8.68;100.00;98510.06;7386291;19;19919;-49
2022/10/30 06:18:27;;;;;;;;;;;;;;;9.30;100.00;98505.16;7384980;19;19910;-45
2022/10/30 06:21:04;;;;;;;;;;;;;;;9.41;100.00;98508.09;7385876;19;20412;-47
2022/10/30 06:23:58;;;;;;;;;;;;;;;8.87;100.00;98505.63;7381392;19;19923;-51
2022/10/30 06:26:51;;;;;;;;;;;;;;;8.97;100.00;98514.72;7384066;19;19915;-50
2022/10/30 06:29:24;;;;;;;;;;;;;;;9.14;100.00;98503.38;7378876;19;19919;-56
2022/10/30 06:31:59;;;;;;;;;;;;;;;9.05;100.00;98503.84;7381174;19;19918;-51
2022/10/30 06:34:32;;;;;;;;;;;;;;;9.09;100.00;98494.91;7383688;19;19986;-48
2022/10/30 06:37:08;;;;;;;;;;;;;;;9.25;100.00;98491.44;7380960;19;20408;-46
2022/10/30 06:39:41;;;;;;;;;;;;;;;9.53;100.00;98485.63;7375545;19;19929;-56
2022/10/30 06:42:47;;;;;;;;;;;;;;;9.32;100.00;98490.22;7379609;19;19950;-53
2022/10/30 06:45:33;;;;;;;;;;;;;;;9.23;100.00;98497.69;7367339;19;19982;-52
2022/10/30 06:48:10;;;;;;;;;;;;;;;9.22;100.00;98499.47;7380018;19;20455;-51
2022/10/30 06:50:47;;;;;;;;;;;;;;;9.18;100.00;98494.44;7372416;19;19914;-55
2022/10/30 06:53:21;;;;;;;;;;;;;;;9.60;100.00;98494.91;7378503;19;19978;-51
2022/10/30 06:55:59;;;;;;;;;;;;;;;9.31;100.00;98498.16;7379399;19;19918;-52
2022/10/30 06:58:55;;;;;;;;;;;;;;;9.64;100.00;98499.94;7381391;19;19933;-47
2022/10/30 07:02:00;;;;;;;;;;;;;;;9.48;100.00;98504.25;7380868;19;20303;-52
2022/10/30 07:04:44;;;;;;;;;;;;;;;9.58;100.00;98509.88;7374101;19;19974;-56
2022/10/30 07:07:17;;;;;;;;;;;;;;;9.65;100.00;98513.91;7377925;19;19941;-54
2022/10/30 07:09:50;;;;;;;;;;;;;;;10.01;100.00;98502.34;7379749;19;19925;-53
2022/10/30 07:12:27;;;;;;;;;;;;;;;9.77;100.00;98513.25;7381115;19;19921;-52
2022/10/30 07:15:28;;;;;;;;;;;;;;;10.16;100.00;98501.53;7375046;19;19915;-54
2022/10/30 07:18:10;;;;;;;;;;;;;;;10.28;100.00;98513.13;7379633;19;19915;-51
2022/10/30 07:20:45;;;;;;;;;;;;;;;9.88;100.00;98513.56;7378409;19;20339;-59
2022/10/30 07:23:18;;;;;;;;;;;;;;;10.09;100.00;98504.53;7383350;19;19915;-50
2022/10/30 07:25:51;;;;;;;;;;;;;;;9.90;100.00;98512.56;7379305;19;19915;-49
2022/10/30 07:28:30;;;;;;;;;;;;;;;9.82;100.00;98511.28;7380521;19;19925;-52
2022/10/30 07:31:23;;;;;;;;;;;;;;;10.33;100.00;98505.88;7378821;19;20809;-58
2022/10/30 07:33:58;;;;;;;;;;;;;;;10.29;100.00;98514.84;7382119;19;20303;-52
2022/10/30 07:36:50;;;;;;;;;;;;;;;9.98;100.00;98512.16;7376924;19;20323;-53
2022/10/30 07:39:31;;;;;;;;;;;;;;;10.15;100.00;98512.94;7380528;19;19925;-53
2022/10/30 07:42:26;;;;;;;;;;;;;;;10.35;100.00;98506.63;7382898;19;19958;-55
2022/10/30 07:45:31;;;;;;;;;;;;;;;10.51;100.00;98504.84;7385512;19;20007;-52
2022/10/30 07:48:22;;;;;;;;;;;;;;;10.49;100.00;98502.31;7390168;19;19922;-55
2022/10/30 07:51:28;;;;;;;;;;;;;;;10.47;100.00;98492.78;7379363;19;19958;-55
2022/10/30 07:54:04;;;;;;;;;;;;;;;10.68;100.00;98488.97;7373008;19;19911;-57
2022/10/30 07:56:39;;;;;;;;;;;;;;;10.52;100.00;98491.59;7376130;19;20333;-58
2022/10/30 07:59:52;;;;;;;;;;;;;;;10.86;100.00;98501.09;7379036;19;19919;-53
2022/10/30 08:02:44;;;;;;;;;;;;;;;10.91;100.00;98502.53;7380639;19;20324;-55
2022/10/30 08:05:26;;;;;;;;;;;;;;;10.79;100.00;98499.75;7382721;19;20347;-54
2022/10/30 08:08:19;;;;;;;;;;;;;;;10.91;100.00;98493.78;7382990;19;19937;-56
2022/10/30 08:11:01;;;;;;;;;;;;;;;11.03;100.00;98486.06;7378422;19;19926;-59
2022/10/30 08:13:35;;;;;;;;;;;;;;;11.09;100.00;98498.03;7382169;19;19919;-53
2022/10/30 08:16:09;;;;;;;;;;;;;;;11.03;100.00;98493.97;7384543;19;19948;-55
2022/10/30 08:18:43;;;;;;;;;;;;;;;11.27;100.00;98492.56;7380767;19;19918;-53
2022/10/30 08:21:17;;;;;;;;;;;;;;;11.22;100.00;98485.84;7383896;19;19922;-50
2022/10/30 08:24:03;;;;;;;;;;;;;;;11.13;100.00;98484.59;7380861;19;20243;-53
2022/10/30 08:26:41;;;;;;;;;;;;;;;11.12;100.00;98482.91;7385472;19;20028;-52
2022/10/30 08:29:16;;;;;;;;;;;;;;;10.77;100.00;98485.84;7381109;19;19922;-52
2022/10/30 08:31:53;;;;;;;;;;;;;;;11.00;100.00;98493.31;7387407;19;19923;-53
2022/10/30 08:34:31;;;;;;;;;;;;;;;11.17;100.00;98477.38;7386288;19;19982;-58
2022/10/30 08:37:09;;;;;;;;;;;;;;;11.28;100.00;98482.84;7388870;19;19939;-50
2022/10/30 08:39:42;;;;;;;;;;;;;;;11.28;100.00;98486.34;7388352;19;19927;-52
2022/10/30 08:42:40;;;;;;;;;;;;;;;11.04;100.00;98493.03;7386241;19;19978;-55
2022/10/30 08:45:16;;;;;;;;;;;;;;;11.45;100.00;98498.50;7380052;19;19940;-52
2022/10/30 08:48:10;;;;;;;;;;;;;;;11.78;100.00;98485.97;7378962;19;19914;-53
2022/10/30 08:50:45;;;;;;;;;;;;;;;11.51;100.00;98487.63;7381838;19;20515;-53
2022/10/30 08:53:23;;;;;;;;;;;;;;;12.00;100.00;98493.41;7380991;19;19953;-53
2022/10/30 08:55:58;;;;;;;;;;;;;;;11.98;100.00;98501.41;7380751;19;20426;-52
2022/10/30 08:58:55;;;;;;;;;;;;;;;12.08;100.00;98499.91;7383329;19;20387;-52
2022/10/30 09:01:28;;;;;;;;;;;;;;;12.19;100.00;98497.44;7379496;19;19921;-55
2022/10/30 09:04:25;;;;;;;;;;;;;;;12.30;100.00;98497.66;7373976;19;19919;-58
2022/10/30 09:07:16;;;;;;;;;;;;;;;12.51;100.00;98506.00;7378385;19;19924;-54
2022/10/30 09:10:08;;;;;;;;;;;;;;;12.53;100.00;98499.69;7382098;19;19922;-53
2022/10/30 09:12:43;;;;;;;;;;;;;;;12.66;100.00;98497.97;7381874;19;19935;-50
2022/10/30 09:15:19;;;;;;;;;;;;;;;12.68;100.00;98489.97;7378765;19;20362;-52
2022/10/30 09:18:02;;;;;;;;;;;;;;;13.21;100.00;98498.72;7382900;19;19914;-50
2022/10/30 09:20:36;;;;;;;;;;;;;;;12.85;100.00;98501.13;7379313;19;19921;-55
2022/10/30 09:23:09;;;;;;;;;;;;;;;12.81;100.00;98499.63;7380021;19;19919;-54
2022/10/30 09:25:45;;;;;;;;;;;;;;;13.05;100.00;98495.41;7381891;19;20031;-59
2022/10/30 09:28:25;;;;;;;;;;;;;;;13.34;100.00;98494.31;7383971;19;19907;-49
2022/10/30 09:31:28;;;;;;;;;;;;;;;13.32;100.00;98493.56;7380017;19;19929;-53
2022/10/30 09:34:01;;;;;;;;;;;;;;;13.51;100.00;98494.06;7385643;19;19923;-51
2022/10/30 09:37:07;;;;;;;;;;;;;;;13.59;100.00;98502.31;7384931;19;19923;-52
2022/10/30 09:39:43;;;;;;;;;;;;;;;13.57;100.00;98498.94;7380488;19;19926;-59
2022/10/30 09:42:36;;;;;;;;;;;;;;;14.12;100.00;98488.91;7384856;19;19918;-51
2022/10/30 09:45:32;;;;;;;;;;;;;;;13.70;100.00;98486.56;7379597;19;19979;-55
2022/10/30 09:48:16;;;;;;;;;;;;;;;14.11;100.00;98489.84;7385295;19;19919;-48
2022/10/30 09:51:03;;;;;;;;;;;;;;;13.50;100.00;98489.75;7385165;19;20034;-53
2022/10/30 09:53:42;;;;;;;;;;;;;;;13.55;100.00;98489.41;7381055;19;19918;-55
2022/10/30 09:56:28;;;;;;;;;;;;;;;13.73;100.00;98494.31;7382580;19;19922;-49
2022/10/30 09:59:07;;;;;;;;;;;;;;;13.96;100.00;98512.06;7377494;19;19927;-53
2022/10/30 10:01:45;;;;;;;;;;;;;;;13.84;100.00;98510.28;7381705;19;19919;-53
2022/10/30 10:04:25;;;;;;;;;;;;;;;13.84;100.00;98509.41;7377970;19;19998;-58
2022/10/30 10:07:31;;;;;;;;;;;;;;;13.74;100.00;98503.91;7379776;19;19914;-56
2022/10/30 10:10:16;;;;;;;;;;;;;;;13.87;100.00;98507.44;7384308;19;19910;-55
2022/10/30 10:13:02;;;;;;;;;;;;;;;14.13;100.00;98506.47;7380568;19;19945;-56
2022/10/30 10:15:39;;;;;;;;;;;;;;;14.01;100.00;98496.75;7387249;19;19926;-53
2022/10/30 10:18:19;;;;;;;;;;;;;;;14.42;100.00;98497.38;7380590;19;19911;-59
2022/10/30 10:20:57;;;;;;;;;;;;;;;14.43;100.00;98492.91;7386178;19;20294;-51
2022/10/30 10:23:35;;;;;;;;;;;;;;;14.28;100.00;98484.22;7381534;19;19915;-59
2022/10/30 10:26:12;;;;;;;;;;;;;;;14.44;100.00;98476.91;7386867;19;20350;-55
2022/10/30 10:28:55;;;;;;;;;;;;;;;14.52;100.00;98465.78;7387282;19;19927;-56
2022/10/30 10:31:35;;;;;;;;;;;;;;;14.54;100.00;98472.66;7383782;19;19922;-56
2022/10/30 10:34:21;;;;;;;;;;;;;;;14.88;100.00;98471.91;7384706;19;20331;-60
2022/10/30 10:37:02;;;;;;;;;;;;;;;14.57;100.00;98475.09;7385853;19;19918;-53
2022/10/30 10:39:43;;;;;;;;;;;;;;;14.46;100.00;98476.81;7378515;19;20294;-59
2022/10/30 10:42:24;;;;;;;;;;;;;;;14.27;100.00;98477.25;7385273;19;19985;-55
2022/10/30 10:45:02;;;;;;;;;;;;;;;14.28;100.00;98484.22;7380524;19;20335;-56
2022/10/30 10:47:56;;;;;;;;;;;;;;;14.33;100.00;98484.75;7384118;19;19922;-54
2022/10/30 10:50:31;;;;;;;;;;;;;;;14.43;100.00;98485.81;7384294;19;19922;-55
2022/10/30 10:53:12;;;;;;;;;;;;;;;14.60;100.00;98482.81;7386118;19;19919;-56
2022/10/30 10:55:48;;;;;;;;;;;;;;;14.42;100.00;98497.38;7379947;19;19922;-54
2022/10/30 10:58:35;;;;;;;;;;;;;;;14.52;100.00;98490.44;7383919;19;20359;-56
2022/10/30 11:01:11;;;;;;;;;;;;;;;14.61;100.00;98492.44;7381052;19;19921;-54
2022/10/30 11:03:49;;;;;;;;;;;;;;;14.66;100.00;98486.81;7386808;19;20271;-54
2022/10/30 11:06:26;;;;;;;;;;;;;;;14.89;100.00;98486.81;7375886;19;20392;-54
2022/10/30 11:09:06;;;;;;;;;;;;;;;15.10;100.00;98472.97;7385753;19;19935;-53
2022/10/30 11:11:39;;;;;;;;;;;;;;;14.84;100.00;98467.78;7380701;19;19914;-55
2022/10/30 11:14:18;;;;;;;;;;;;;;;15.00;100.00;98474.59;7387977;19;19938;-55
2022/10/30 11:17:07;;;;;;;;;;;;;;;15.26;100.00;98474.38;7385864;19;19915;-52
2022/10/30 11:19:40;;;;;;;;;;;;;;;15.18;100.00;98465.28;7390566;19;19929;-54
2022/10/30 11:22:18;;;;;;;;;;;;;;;15.25;100.00;98456.78;7394445;19;19979;-54
2022/10/30 11:24:56;;;;;;;;;;;;;;;14.94;100.00;98457.34;7392836;19;19982;-54
2022/10/30 11:27:32;;;;;;;;;;;;;;;15.00;100.00;98456.91;7392922;19;19915;-56
2022/10/30 11:30:06;;;;;;;;;;;;;;;14.99;100.00;98454.38;7392894;19;20940;-54
2022/10/30 11:32:40;;;;;;;;;;;;;;;15.10;100.00;98457.06;7394223;19;20416;-55
2022/10/30 11:35:17;;;;;;;;;;;;;;;15.09;100.00;98461.50;7386117;19;19927;-57
2022/10/30 11:37:51;;;;;;;;;;;;;;;15.00;100.00;98469.31;7392606;19;19918;-54
2022/10/30 11:40:28;;;;;;;;;;;;;;;15.12;100.00;98471.91;7390510;19;19947;-53
2022/10/30 11:43:03;;;;;;;;;;;;;;;15.01;100.00;98468.34;7392136;19;19919;-53
2022/10/30 11:45:38;;;;;;;;;;;;;;;14.89;100.00;98462.97;7391773;19;19960;-53
2022/10/30 11:48:15;;;;;;;;;;;;;;;14.99;100.00;98457.88;7386681;19;19940;-54
2022/10/30 11:50:51;;;;;;;;;;;;;;;15.06;100.00;98456.44;7389112;19;19930;-55
2022/10/30 11:53:29;;;;;;;;;;;;;;;15.38;100.00;98467.31;7386268;19;20259;-53
2022/10/30 11:56:06;;;;;;;;;;;;;;;15.30;100.00;98465.22;7390135;19;19914;-54
2022/10/30 11:58:42;;;;;;;;;;;;;;;15.48;100.00;98463.00;7386480;19;19923;-55
2022/10/30 12:01:19;;;;;;;;;;;;;;;15.66;100.00;98457.16;7391258;19;20265;-56
2022/10/30 12:03:52;;;;;;;;;;;;;;;16.09;100.00;98449.38;7391839;19;19986;-54
2022/10/30 12:06:26;;;;;;;;;;;;;;;16.08;100.00;98450.34;7386908;19;20611;-56
2022/10/30 12:09:08;;;;;;;;;;;;;;;15.76;100.00;98454.66;7390943;19;19926;-53
2022/10/30 12:11:45;;;;;;;;;;;;;;;15.78;100.00;98455.34;7383537;19;19911;-56
2022/10/30 12:14:25;;;;;;;;;;;;;;;15.98;100.00;98444.06;7390772;19;19914;-56
2022/10/30 12:17:01;;;;;;;;;;;;;;;15.89;100.00;98448.28;7383862;19;19915;-54
2022/10/30 12:19:34;;;;;;;;;;;;;;;15.98;100.00;98449.38;7388554;19;19924;-54
2022/10/30 12:22:07;;;;;;;;;;;;;;;15.81;100.00;98436.56;7390237;19;19925;-54
2022/10/30 12:24:42;;;;;;;;;;;;;;;15.84;100.00;98431.03;7388073;19;20421;-56
2022/10/30 12:27:20;;;;;;;;;;;;;;;15.84;100.00;98423.06;7390489;19;19915;-54
2022/10/30 12:30:04;;;;;;;;;;;;;;;15.70;100.00;98418.84;7377165;19;19925;-52
2022/10/30 12:32:45;;;;;;;;;;;;;;;15.90;100.00;98427.91;7384936;19;19932;-55
2022/10/30 12:35:24;;;;;;;;;;;;;;;15.74;100.00;98419.44;7382781;19;20235;-56
2022/10/30 12:37:59;;;;;;;;;;;;;;;15.69;100.00;98419.81;7387172;19;19923;-51
2022/10/30 12:40:34;;;;;;;;;;;;;;;15.68;100.00;98411.97;7383195;19;20310;-54
2022/10/30 12:43:18;;;;;;;;;;;;;;;15.62;100.00;98412.44;7389309;19;19914;-54
2022/10/30 12:45:52;;;;;;;;;;;;;;;15.71;100.00;98417.03;7378078;19;19919;-56
2022/10/30 12:48:30;;;;;;;;;;;;;;;15.69;100.00;98418.97;7384602;19;19911;-54
2022/10/30 12:51:16;;;;;;;;;;;;;;;15.57;100.00;98419.91;7377393;19;19914;-51
2022/10/30 12:53:57;;;;;;;;;;;;;;;15.57;100.00;98415.44;7387782;19;19919;-54
2022/10/30 12:56:33;;;;;;;;;;;;;;;15.61;100.00;98419.53;7384227;19;19923;-52
2022/10/30 12:59:19;;;;;;;;;;;;;;;15.60;100.00;98417.84;7386967;19;19947;-54
2022/10/30 13:01:55;;;;;;;;;;;;;;;15.89;100.00;98415.59;7383463;19;20335;-56
2022/10/30 13:04:29;;;;;;;;;;;;;;;15.83;100.00;98413.44;7387933;19;19919;-53
2022/10/30 13:07:06;;;;;;;;;;;;;;;16.04;100.00;98409.06;7383676;19;19919;-59
2022/10/30 13:09:43;;;;;;;;;;;;;;;15.88;100.00;98412.13;7387022;19;20335;-52
2022/10/30 13:12:19;;;;;;;;;;;;;;;15.91;100.00;98408.38;7388675;19;20394;-54
2022/10/30 13:14:56;;;;;;;;;;;;;;;16.01;100.00;98409.34;7381381;19;20010;-57
2022/10/30 13:17:30;;;;;;;;;;;;;;;15.96;100.00;98406.19;7384957;19;19979;-53
2022/10/30 13:20:03;;;;;;;;;;;;;;;16.05;100.00;98403.66;7375472;19;19953;-54
2022/10/30 13:22:40;;;;;;;;;;;;;;;15.97;100.00;98410.56;7385004;19;20280;-58
2022/10/30 13:25:19;;;;;;;;;;;;;;;15.96;100.00;98407.03;7387421;19;19918;-60
2022/10/30 13:27:58;;;;;;;;;;;;;;;15.96;100.00;98399.09;7386195;19;19929;-55
2022/10/30 13:30:37;;;;;;;;;;;;;;;15.72;100.00;98397.53;7383796;19;20290;-52
2022/10/30 13:33:17;;;;;;;;;;;;;;;15.78;100.00;98397.03;7385630;19;19918;-54
2022/10/30 13:35:54;;;;;;;;;;;;;;;15.64;100.00;98384.84;7386644;19;19923;-55
2022/10/30 13:38:42;;;;;;;;;;;;;;;15.66;100.00;98392.69;7389462;19;19946;-53